createdAt,value
2022-08-16T00:00:54.585Z,14.40
2022-08-16T00:01:53.585Z,14.40
2022-08-16T00:02:53.568Z,14.70
2022-08-16T00:03:53.578Z,13.60
2022-08-16T00:04:53.546Z,14.50
2022-08-16T00:05:57.497Z,14.10
2022-08-16T00:06:53.560Z,14.40
2022-08-16T00:07:56.258Z,14.00
2022-08-16T00:08:53.503Z,13.50
2022-08-16T00:09:53.522Z,14.00
2022-08-16T00:10:53.586Z,13.00
2022-08-16T00:11:55.492Z,11.90
2022-08-16T00:12:53.504Z,12.60
2022-08-16T00:13:55.478Z,13.60
2022-08-16T00:14:56.691Z,14.40
2022-08-16T00:15:54.351Z,14.40
2022-08-16T00:17:06.713Z,14.80
2022-08-16T00:17:57.045Z,15.50
2022-08-16T00:18:53.434Z,13.50
2022-08-16T00:19:55.052Z,13.10
2022-08-16T00:20:53.411Z,12.30
2022-08-16T00:21:55.210Z,13.10
2022-08-16T00:22:53.400Z,13.10
2022-08-16T00:23:53.397Z,13.80
2022-08-16T00:24:53.374Z,13.60
2022-08-16T00:26:36.006Z,13.60
2022-08-16T00:26:54.379Z,14.80
2022-08-16T00:27:53.354Z,13.40
2022-08-16T00:28:54.712Z,12.90
2022-08-16T00:30:08.973Z,14.80
2022-08-16T00:30:54.335Z,14.50
2022-08-16T00:31:59.678Z,13.40
2022-08-16T00:32:57.159Z,12.40
2022-08-16T00:33:53.310Z,13.70
2022-08-16T00:34:54.335Z,12.50
2022-08-16T00:35:53.309Z,15.90
2022-08-16T00:36:55.927Z,14.30
2022-08-16T00:37:56.900Z,13.70
2022-08-16T00:38:54.280Z,12.80
2022-08-16T00:39:57.208Z,12.40
2022-08-16T00:40:54.300Z,12.50
2022-08-16T00:41:53.256Z,13.60
2022-08-16T00:42:54.831Z,12.70
2022-08-16T00:43:53.272Z,14.00
2022-08-16T00:44:53.211Z,14.00
2022-08-16T00:45:57.841Z,12.60
2022-08-16T00:47:06.140Z,12.20
2022-08-16T00:47:54.211Z,13.50
2022-08-16T00:48:53.179Z,13.10
2022-08-16T00:49:56.255Z,14.00
2022-08-16T00:50:55.354Z,11.90
2022-08-16T00:51:55.145Z,13.70
2022-08-16T00:52:53.822Z,14.10
2022-08-16T00:53:53.148Z,14.80
2022-08-16T00:54:53.155Z,12.70
2022-08-16T00:55:53.156Z,12.70
2022-08-16T00:56:58.632Z,14.20
2022-08-16T00:57:59.083Z,14.20
2022-08-16T00:58:54.100Z,12.70
2022-08-16T00:59:59.013Z,12.90
2022-08-16T01:00:54.534Z,11.40
2022-08-16T01:01:53.090Z,14.10
2022-08-16T01:02:53.087Z,13.80
2022-08-16T01:03:53.086Z,15.30
2022-08-16T01:05:09.375Z,13.40
2022-08-16T01:05:54.033Z,13.60
2022-08-16T01:07:01.805Z,13.00
2022-08-16T01:07:54.049Z,12.10
2022-08-16T01:08:53.025Z,13.50
2022-08-16T01:09:53.985Z,12.40
2022-08-16T01:10:53.054Z,13.60
2022-08-16T01:11:55.025Z,14.00
2022-08-16T01:12:53.001Z,12.50
2022-08-16T01:13:53.180Z,13.10
2022-08-16T01:14:53.268Z,13.10
2022-08-16T01:15:53.728Z,12.90
2022-08-16T01:16:52.941Z,11.90
2022-08-16T01:17:56.010Z,12.10
2022-08-16T01:18:52.922Z,13.10
2022-08-16T01:19:52.918Z,12.60
2022-08-16T01:20:52.916Z,13.10
2022-08-16T01:21:52.893Z,14.20
2022-08-16T01:22:52.894Z,13.70
2022-08-16T01:23:58.530Z,14.20
2022-08-16T01:24:55.593Z,15.40
2022-08-16T01:26:00.084Z,15.50
2022-08-16T01:26:53.860Z,14.90
2022-08-16T01:27:52.854Z,13.90
2022-08-16T01:28:52.929Z,14.50
2022-08-16T01:29:58.648Z,13.20
2022-08-16T01:30:53.859Z,13.50
2022-08-16T01:31:52.883Z,13.90
2022-08-16T01:33:02.766Z,12.50
2022-08-16T01:33:53.810Z,14.50
2022-08-16T01:34:53.856Z,14.90
2022-08-16T01:35:53.449Z,15.50
2022-08-16T01:36:55.106Z,16.30
2022-08-16T01:37:54.290Z,13.90
2022-08-16T01:38:56.781Z,14.10
2022-08-16T01:39:52.874Z,14.50
2022-08-16T01:40:52.772Z,13.50
2022-08-16T01:41:52.743Z,14.50
2022-08-16T01:42:53.887Z,16.20
2022-08-16T01:43:53.905Z,15.30
2022-08-16T01:44:52.721Z,15.00
2022-08-16T01:45:54.102Z,14.10
2022-08-16T01:46:53.685Z,14.80
2022-08-16T01:47:52.674Z,14.70
2022-08-16T01:48:52.675Z,14.90
2022-08-16T01:50:43.049Z,17.20
2022-08-16T01:51:08.926Z,14.60
2022-08-16T01:51:53.646Z,15.00
2022-08-16T01:52:52.632Z,15.10
2022-08-16T01:53:54.705Z,16.00
2022-08-16T01:54:53.493Z,13.90
2022-08-16T01:55:53.962Z,14.80
2022-08-16T01:56:52.598Z,17.00
2022-08-16T01:57:53.746Z,14.40
2022-08-16T01:58:52.623Z,15.70
2022-08-16T01:59:54.671Z,15.40
2022-08-16T02:00:52.561Z,15.80
2022-08-16T02:01:59.695Z,15.50
2022-08-16T02:02:53.956Z,15.00
2022-08-16T02:03:52.534Z,15.20
2022-08-16T02:04:54.722Z,17.00
2022-08-16T02:05:52.520Z,17.40
2022-08-16T02:06:52.546Z,15.00
2022-08-16T02:07:53.572Z,15.80
2022-08-16T02:08:52.501Z,14.30
2022-08-16T02:09:57.508Z,16.60
2022-08-16T02:10:53.483Z,17.40
2022-08-16T02:11:52.874Z,20.10
2022-08-16T02:12:55.914Z,16.30
2022-08-16T02:13:54.909Z,18.50
2022-08-16T02:14:52.479Z,16.40
2022-08-16T02:15:52.450Z,17.80
2022-08-16T02:16:52.429Z,16.50
2022-08-16T02:17:52.652Z,17.80
2022-08-16T02:18:52.404Z,18.10
2022-08-16T02:19:58.471Z,17.70
2022-08-16T02:20:53.679Z,18.30
2022-08-16T02:22:09.354Z,19.30
2022-08-16T02:22:53.372Z,19.00
2022-08-16T02:23:55.636Z,18.10
2022-08-16T02:24:52.385Z,20.30
2022-08-16T02:25:54.625Z,17.30
2022-08-16T02:26:52.337Z,19.00
2022-08-16T02:27:52.335Z,16.00
2022-08-16T02:28:52.727Z,16.10
2022-08-16T02:29:52.333Z,16.60
2022-08-16T02:30:53.313Z,15.10
2022-08-16T02:32:02.671Z,17.10
2022-08-16T02:32:53.306Z,15.40
2022-08-16T02:33:52.272Z,14.70
2022-08-16T02:34:52.293Z,15.70
2022-08-16T02:35:55.145Z,14.60
2022-08-16T02:36:53.261Z,17.80
2022-08-16T02:37:53.100Z,15.50
2022-08-16T02:38:52.243Z,14.60
2022-08-16T02:39:53.955Z,13.90
2022-08-16T02:40:54.622Z,13.70
2022-08-16T02:41:53.243Z,14.50
2022-08-16T02:42:52.424Z,14.70
2022-08-16T02:43:52.212Z,14.30
2022-08-16T02:44:52.187Z,15.20
2022-08-16T02:45:52.188Z,14.20
2022-08-16T02:46:53.815Z,15.10
2022-08-16T02:48:01.161Z,13.60
2022-08-16T02:48:53.157Z,13.40
2022-08-16T02:49:59.283Z,13.80
2022-08-16T02:51:06.304Z,17.00
2022-08-16T02:51:53.148Z,16.30
2022-08-16T02:52:52.124Z,18.10
2022-08-16T02:53:52.094Z,16.10
2022-08-16T02:54:55.163Z,16.20
2022-08-16T02:55:52.076Z,15.70
2022-08-16T02:56:52.094Z,15.40
2022-08-16T02:57:53.995Z,14.90
2022-08-16T02:58:52.057Z,15.10
2022-08-16T02:59:52.037Z,17.40
2022-08-16T03:00:52.098Z,16.10
2022-08-16T03:01:52.055Z,15.00
2022-08-16T03:02:55.891Z,15.20
2022-08-16T03:04:41.234Z,18.00
2022-08-16T03:04:53.026Z,17.00
2022-08-16T03:05:52.483Z,17.40
2022-08-16T03:06:56.460Z,15.90
2022-08-16T03:07:53.101Z,15.20
2022-08-16T03:08:53.257Z,15.40
2022-08-16T03:09:51.958Z,15.60
2022-08-16T03:10:51.955Z,14.30
2022-08-16T03:11:51.930Z,16.30
2022-08-16T03:12:55.340Z,14.80
2022-08-16T03:13:53.060Z,16.80
2022-08-16T03:14:51.929Z,18.80
2022-08-16T03:15:51.903Z,18.20
2022-08-16T03:17:00.153Z,17.10
2022-08-16T03:17:53.843Z,19.80
2022-08-16T03:18:51.905Z,17.70
2022-08-16T03:19:59.807Z,17.80
2022-08-16T03:20:55.440Z,15.60
2022-08-16T03:21:51.955Z,18.70
2022-08-16T03:22:51.891Z,16.80
2022-08-16T03:23:51.826Z,18.10
2022-08-16T03:24:51.840Z,15.10
2022-08-16T03:25:51.824Z,16.30
2022-08-16T03:26:51.802Z,17.20
2022-08-16T03:27:51.784Z,16.90
2022-08-16T03:28:51.786Z,16.80
2022-08-16T03:29:54.747Z,16.20
2022-08-16T03:30:51.783Z,14.80
2022-08-16T03:31:52.414Z,17.20
2022-08-16T03:32:52.119Z,17.10
2022-08-16T03:33:52.318Z,18.10
2022-08-16T03:34:51.732Z,18.10
2022-08-16T03:35:57.011Z,17.80
2022-08-16T03:36:52.716Z,18.00
2022-08-16T03:38:03.292Z,18.10
2022-08-16T03:38:52.692Z,18.80
2022-08-16T03:39:56.564Z,18.90
2022-08-16T03:40:52.677Z,17.90
2022-08-16T03:41:59.347Z,17.40
2022-08-16T03:43:00.374Z,17.40
2022-08-16T03:43:52.644Z,16.40
2022-08-16T03:44:51.635Z,15.90
2022-08-16T03:45:53.356Z,16.50
2022-08-16T03:46:51.639Z,17.40
2022-08-16T03:47:51.660Z,16.70
2022-08-16T03:48:52.707Z,15.70
2022-08-16T03:49:52.420Z,14.60
2022-08-16T03:50:59.788Z,19.10
2022-08-16T03:51:52.595Z,21.10
2022-08-16T03:52:51.578Z,22.20
2022-08-16T03:54:00.879Z,21.10
2022-08-16T03:54:57.480Z,21.30
2022-08-16T03:55:52.729Z,20.90
2022-08-16T03:56:57.547Z,19.30
2022-08-16T03:57:52.567Z,19.00
2022-08-16T03:58:52.548Z,20.20
2022-08-16T03:59:51.509Z,20.50
2022-08-16T04:00:56.695Z,20.90
2022-08-16T04:01:53.659Z,22.80
2022-08-16T04:02:51.481Z,24.00
2022-08-16T04:03:52.738Z,24.10
2022-08-16T04:04:51.477Z,22.00
2022-08-16T04:05:51.478Z,23.40
2022-08-16T04:06:51.453Z,20.90
2022-08-16T04:07:51.455Z,24.50
2022-08-16T04:08:51.467Z,25.10
2022-08-16T04:09:51.420Z,27.00
2022-08-16T04:10:51.712Z,24.40
2022-08-16T04:11:51.389Z,23.10
2022-08-16T04:12:53.109Z,23.80
2022-08-16T04:13:59.892Z,23.60
2022-08-16T04:14:52.395Z,23.80
2022-08-16T04:15:52.896Z,23.30
2022-08-16T04:16:51.356Z,23.40
2022-08-16T04:17:51.354Z,23.70
2022-08-16T04:18:51.367Z,23.40
2022-08-16T04:19:52.365Z,22.40
2022-08-16T04:20:51.329Z,22.50
2022-08-16T04:21:51.308Z,23.90
2022-08-16T04:22:52.304Z,21.20
2022-08-16T04:23:51.322Z,18.90
2022-08-16T04:24:55.259Z,18.50
2022-08-16T04:25:52.285Z,19.80
2022-08-16T04:26:51.266Z,20.00
2022-08-16T04:27:55.828Z,23.90
2022-08-16T04:28:53.343Z,19.20
2022-08-16T04:29:52.565Z,19.50
2022-08-16T04:30:51.232Z,19.70
2022-08-16T04:31:56.473Z,19.00
2022-08-16T04:32:52.211Z,20.10
2022-08-16T04:33:51.572Z,20.60
2022-08-16T04:34:51.346Z,17.90
2022-08-16T04:35:51.198Z,18.50
2022-08-16T04:36:51.179Z,15.50
2022-08-16T04:37:53.890Z,18.30
2022-08-16T04:38:52.458Z,17.60
2022-08-16T04:39:55.661Z,19.70
2022-08-16T04:40:52.159Z,19.60
2022-08-16T04:41:56.646Z,20.50
2022-08-16T04:42:52.359Z,19.30
2022-08-16T04:43:51.115Z,19.60
2022-08-16T04:44:53.838Z,18.20
2022-08-16T04:46:00.526Z,21.80
2022-08-16T04:47:02.408Z,21.20
2022-08-16T04:47:56.193Z,21.00
2022-08-16T04:48:51.066Z,22.60
2022-08-16T04:49:52.287Z,21.60
2022-08-16T04:50:51.083Z,22.00
2022-08-16T04:51:53.630Z,20.90
2022-08-16T04:52:51.041Z,20.50
2022-08-16T04:53:51.968Z,20.50
2022-08-16T04:54:51.019Z,21.00
2022-08-16T04:55:53.287Z,22.70
2022-08-16T04:56:51.015Z,22.40
2022-08-16T04:57:53.668Z,22.20
2022-08-16T04:58:51.000Z,23.60
2022-08-16T04:59:50.983Z,22.30
2022-08-16T05:00:50.989Z,22.50
2022-08-16T05:01:58.683Z,24.50
2022-08-16T05:02:55.696Z,24.10
2022-08-16T05:03:59.806Z,25.50
2022-08-16T05:04:51.933Z,25.40
2022-08-16T05:05:55.850Z,23.60
2022-08-16T05:06:51.915Z,20.60
2022-08-16T05:07:59.450Z,24.30
2022-08-16T05:08:51.940Z,21.60
2022-08-16T05:09:50.931Z,27.20
2022-08-16T05:10:50.886Z,25.30
2022-08-16T05:11:50.871Z,22.70
2022-08-16T05:12:50.900Z,22.50
2022-08-16T05:13:50.859Z,24.00
2022-08-16T05:15:01.665Z,24.60
2022-08-16T05:15:51.841Z,27.60
2022-08-16T05:16:52.144Z,26.20
2022-08-16T05:17:58.937Z,23.40
2022-08-16T05:18:51.891Z,23.10
2022-08-16T05:19:57.414Z,21.20
2022-08-16T05:20:54.249Z,20.10
2022-08-16T05:21:51.781Z,20.80
2022-08-16T05:22:50.770Z,19.70
2022-08-16T05:23:51.566Z,21.00
2022-08-16T05:24:55.010Z,21.20
2022-08-16T05:25:50.758Z,22.60
2022-08-16T05:26:51.487Z,22.60
2022-08-16T05:27:50.882Z,17.80
2022-08-16T05:28:55.219Z,20.50
2022-08-16T05:29:59.462Z,18.40
2022-08-16T05:30:51.725Z,20.50
2022-08-16T05:31:53.149Z,19.80
2022-08-16T05:32:50.811Z,18.80
2022-08-16T05:33:53.542Z,17.90
2022-08-16T05:34:50.695Z,18.90
2022-08-16T05:35:55.078Z,18.40
2022-08-16T05:36:51.685Z,17.40
2022-08-16T05:37:50.649Z,19.30
2022-08-16T05:38:50.643Z,17.80
2022-08-16T05:39:50.690Z,16.90
2022-08-16T05:40:59.732Z,18.20
2022-08-16T05:41:52.011Z,17.80
2022-08-16T05:42:51.038Z,19.60
2022-08-16T05:43:50.605Z,17.10
2022-08-16T05:44:51.595Z,17.00
2022-08-16T05:45:50.877Z,17.00
2022-08-16T05:46:50.606Z,16.00
2022-08-16T05:48:00.062Z,19.10
2022-08-16T05:48:54.907Z,17.90
2022-08-16T05:49:51.133Z,18.70
2022-08-16T05:50:52.914Z,16.00
2022-08-16T05:51:50.571Z,17.30
2022-08-16T05:52:50.531Z,16.30
2022-08-16T05:53:50.530Z,17.40
2022-08-16T05:54:58.435Z,17.80
2022-08-16T05:55:51.702Z,21.20
2022-08-16T05:56:50.520Z,17.10
2022-08-16T05:57:52.530Z,17.10
2022-08-16T05:58:50.486Z,15.10
2022-08-16T05:59:59.902Z,16.60
2022-08-16T06:00:51.463Z,16.80
2022-08-16T06:01:50.516Z,16.60
2022-08-16T06:02:50.464Z,15.50
2022-08-16T06:03:50.446Z,16.90
2022-08-16T06:04:50.435Z,16.20
2022-08-16T06:05:50.421Z,17.20
2022-08-16T06:06:56.411Z,18.20
2022-08-16T06:07:59.058Z,16.30
2022-08-16T06:08:51.400Z,14.70
2022-08-16T06:09:50.384Z,16.40
2022-08-16T06:11:09.726Z,16.70
2022-08-16T06:11:51.484Z,15.60
2022-08-16T06:12:53.834Z,17.40
2022-08-16T06:13:51.374Z,17.10
2022-08-16T06:14:51.367Z,16.20
2022-08-16T06:15:50.379Z,16.90
2022-08-16T06:16:50.760Z,13.50
2022-08-16T06:17:51.663Z,18.90
2022-08-16T06:18:50.521Z,14.90
2022-08-16T06:19:51.235Z,15.80
2022-08-16T06:20:51.669Z,13.90
2022-08-16T06:21:55.053Z,13.40
2022-08-16T06:22:57.482Z,16.10
2022-08-16T06:23:54.258Z,15.80
2022-08-16T06:24:54.955Z,15.60
2022-08-16T06:25:52.882Z,13.20
2022-08-16T06:26:58.059Z,14.90
2022-08-16T06:27:57.497Z,14.60
2022-08-16T06:28:52.609Z,15.10
2022-08-16T06:29:50.489Z,15.30
2022-08-16T06:30:50.218Z,14.10
2022-08-16T06:31:50.485Z,13.90
2022-08-16T06:32:50.542Z,14.90
2022-08-16T06:33:50.193Z,14.90
2022-08-16T06:34:57.257Z,16.40
2022-08-16T06:35:55.116Z,12.80
2022-08-16T06:36:51.164Z,14.60
2022-08-16T06:37:52.403Z,15.00
2022-08-16T06:38:55.727Z,14.70
2022-08-16T06:39:51.213Z,15.50
2022-08-16T06:40:50.250Z,14.70
2022-08-16T06:41:50.192Z,15.80
2022-08-16T06:42:55.297Z,13.50
2022-08-16T06:43:51.323Z,15.00
2022-08-16T06:44:50.103Z,13.80
2022-08-16T06:45:50.104Z,15.40
2022-08-16T06:46:50.356Z,15.00
2022-08-16T06:47:53.051Z,13.20
2022-08-16T06:48:51.621Z,13.20
2022-08-16T06:49:53.910Z,14.00
2022-08-16T06:50:50.033Z,13.50
2022-08-16T06:51:50.068Z,12.50
2022-08-16T06:52:59.835Z,11.60
2022-08-16T06:53:52.791Z,12.50
2022-08-16T06:54:50.072Z,12.40
2022-08-16T06:55:53.801Z,11.70
2022-08-16T06:56:52.326Z,11.50
2022-08-16T06:57:50.004Z,12.10
2022-08-16T06:58:49.991Z,11.50
2022-08-16T06:59:53.010Z,12.20
2022-08-16T07:00:51.005Z,12.50
2022-08-16T07:01:54.135Z,12.60
2022-08-16T07:02:51.803Z,11.30
2022-08-16T07:03:55.047Z,12.00
2022-08-16T07:04:50.933Z,11.70
2022-08-16T07:05:49.933Z,10.20
2022-08-16T07:06:49.915Z,10.60
2022-08-16T07:07:50.714Z,8.80
2022-08-16T07:08:49.928Z,10.60
2022-08-16T07:09:51.311Z,10.80
2022-08-16T07:10:49.877Z,12.60
2022-08-16T07:11:51.842Z,11.10
2022-08-16T07:13:03.237Z,10.30
2022-08-16T07:14:00.397Z,10.80
2022-08-16T07:14:50.869Z,11.10
2022-08-16T07:15:50.113Z,10.50
2022-08-16T07:16:49.830Z,9.20
2022-08-16T07:17:49.817Z,10.10
2022-08-16T07:18:58.113Z,11.70
2022-08-16T07:20:02.962Z,11.30
2022-08-16T07:20:50.834Z,11.20
2022-08-16T07:21:59.190Z,11.00
2022-08-16T07:22:52.675Z,11.80
2022-08-16T07:23:50.795Z,11.40
2022-08-16T07:24:50.789Z,12.10
2022-08-16T07:25:49.771Z,9.60
2022-08-16T07:26:49.780Z,10.60
2022-08-16T07:27:49.818Z,10.00
2022-08-16T07:28:49.759Z,11.50
2022-08-16T07:29:49.737Z,10.70
2022-08-16T07:30:50.711Z,10.90
2022-08-16T07:31:49.729Z,10.00
2022-08-16T07:32:51.452Z,10.60
2022-08-16T07:33:51.933Z,9.40
2022-08-16T07:34:50.659Z,11.30
2022-08-16T07:35:50.037Z,9.90
2022-08-16T07:36:57.864Z,11.00
2022-08-16T07:37:50.694Z,10.50
2022-08-16T07:38:49.978Z,10.60
2022-08-16T07:39:49.780Z,9.70
2022-08-16T07:40:59.688Z,10.20
2022-08-16T07:41:50.644Z,9.10
2022-08-16T07:42:49.819Z,10.40
2022-08-16T07:43:49.642Z,10.20
2022-08-16T07:44:50.854Z,10.80
2022-08-16T07:45:52.850Z,9.40
2022-08-16T07:46:56.236Z,10.90
2022-08-16T07:47:51.235Z,9.10
2022-08-16T07:48:49.611Z,9.40
2022-08-16T07:49:53.279Z,9.00
2022-08-16T07:50:57.103Z,10.60
2022-08-16T07:51:54.467Z,9.70
2022-08-16T07:52:50.587Z,8.50
2022-08-16T07:53:49.604Z,10.20
2022-08-16T07:54:53.251Z,8.40
2022-08-16T07:55:49.538Z,10.60
2022-08-16T07:56:49.538Z,10.00
2022-08-16T07:58:00.769Z,9.30
2022-08-16T07:58:55.498Z,10.00
2022-08-16T07:59:50.557Z,9.40
2022-08-16T08:00:49.615Z,9.70
2022-08-16T08:01:49.483Z,8.40
2022-08-16T08:02:52.056Z,9.30
2022-08-16T08:03:49.577Z,9.20
2022-08-16T08:04:49.465Z,8.10
2022-08-16T08:05:49.446Z,9.30
2022-08-16T08:06:51.107Z,9.50
2022-08-16T08:07:49.426Z,10.20
2022-08-16T08:08:52.526Z,9.00
2022-08-16T08:09:50.423Z,9.80
2022-08-16T08:10:49.420Z,7.90
2022-08-16T08:12:00.748Z,7.90
2022-08-16T08:12:50.717Z,8.60
2022-08-16T08:13:49.425Z,9.30
2022-08-16T08:14:49.392Z,8.00
2022-08-16T08:15:52.507Z,8.30
2022-08-16T08:16:49.373Z,7.80
2022-08-16T08:17:49.720Z,8.00
2022-08-16T08:18:49.862Z,7.90
2022-08-16T08:19:52.948Z,8.50
2022-08-16T08:20:59.409Z,7.50
2022-08-16T08:22:00.662Z,7.90
2022-08-16T08:22:50.371Z,7.70
2022-08-16T08:23:49.311Z,10.20
2022-08-16T08:24:49.322Z,9.30
2022-08-16T08:25:55.384Z,8.20
2022-08-16T08:26:50.639Z,8.00
2022-08-16T08:27:49.292Z,7.80
2022-08-16T08:28:50.271Z,8.00
2022-08-16T08:30:50.238Z,6.50
2022-08-16T08:31:02.592Z,7.00
2022-08-16T08:31:51.502Z,8.50
2022-08-16T08:32:59.774Z,7.20
2022-08-16T08:33:51.398Z,7.80
2022-08-16T08:34:49.226Z,7.30
2022-08-16T08:35:49.230Z,6.80
2022-08-16T08:36:49.223Z,6.70
2022-08-16T08:37:55.169Z,7.90
2022-08-16T08:38:50.192Z,7.70
2022-08-16T08:39:55.063Z,7.00
2022-08-16T08:40:50.202Z,7.80
2022-08-16T08:41:49.435Z,8.10
2022-08-16T08:42:49.349Z,7.80
2022-08-16T08:43:50.507Z,8.40
2022-08-16T08:44:49.168Z,8.40
2022-08-16T08:45:52.773Z,8.50
2022-08-16T08:47:00.554Z,8.30
2022-08-16T08:47:54.178Z,8.60
2022-08-16T08:48:59.538Z,7.50
2022-08-16T08:49:55.648Z,8.70
2022-08-16T08:50:50.406Z,7.80
2022-08-16T08:51:49.165Z,7.70
2022-08-16T08:52:49.270Z,8.50
2022-08-16T08:53:57.919Z,8.40
2022-08-16T08:54:50.495Z,7.40
2022-08-16T08:55:49.081Z,7.80
2022-08-16T08:56:50.698Z,7.00
2022-08-16T08:57:49.081Z,7.10
2022-08-16T08:58:54.863Z,7.30
2022-08-16T08:59:50.694Z,7.60
2022-08-16T09:00:51.222Z,8.40
2022-08-16T09:01:57.311Z,9.10
2022-08-16T09:02:52.233Z,9.00
2022-08-16T09:03:49.082Z,7.50
2022-08-16T09:04:49.000Z,8.10
2022-08-16T09:05:51.519Z,7.10
2022-08-16T09:06:48.966Z,7.50
2022-08-16T09:08:00.160Z,8.00
2022-08-16T09:08:50.037Z,8.10
2022-08-16T09:09:48.988Z,7.40
2022-08-16T09:11:02.108Z,7.50
2022-08-16T09:12:03.914Z,6.60
2022-08-16T09:12:50.220Z,8.50
2022-08-16T09:13:48.913Z,8.10
2022-08-16T09:14:50.906Z,6.60
2022-08-16T09:15:48.907Z,8.80
2022-08-16T09:17:03.197Z,8.40
2022-08-16T09:17:53.469Z,7.80
2022-08-16T09:18:54.931Z,7.70
2022-08-16T09:19:55.103Z,6.80
2022-08-16T09:20:59.694Z,7.70
2022-08-16T09:21:56.085Z,7.70
2022-08-16T09:22:51.597Z,8.00
2022-08-16T09:23:49.639Z,8.20
2022-08-16T09:24:52.508Z,8.20
2022-08-16T09:25:49.852Z,7.70
2022-08-16T09:26:48.896Z,8.90
2022-08-16T09:27:57.922Z,6.80
2022-08-16T09:29:15.960Z,7.20
2022-08-16T09:30:00.224Z,7.80
2022-08-16T09:30:49.785Z,7.80
2022-08-16T09:31:53.633Z,7.00
2022-08-16T09:32:50.903Z,8.20
2022-08-16T09:33:51.782Z,6.80
2022-08-16T09:34:48.747Z,7.40
2022-08-16T09:35:53.084Z,8.10
2022-08-16T09:36:49.758Z,6.70
2022-08-16T09:38:00.474Z,7.20
2022-08-16T09:38:49.751Z,8.00
2022-08-16T09:39:50.473Z,7.80
2022-08-16T09:40:48.769Z,7.20
2022-08-16T09:41:53.613Z,8.10
2022-08-16T09:42:56.008Z,7.10
2022-08-16T09:43:59.074Z,7.20
2022-08-16T09:45:12.081Z,7.10
2022-08-16T09:45:49.767Z,6.90
2022-08-16T09:46:49.963Z,7.60
2022-08-16T09:47:57.320Z,7.70
2022-08-16T09:48:50.985Z,6.70
2022-08-16T09:49:50.977Z,7.80
2022-08-16T09:50:48.629Z,7.60
2022-08-16T09:51:49.586Z,9.00
2022-08-16T09:52:48.777Z,7.10
2022-08-16T09:53:53.904Z,8.00
2022-08-16T09:54:49.803Z,8.70
2022-08-16T09:55:49.046Z,9.90
2022-08-16T09:56:52.182Z,7.50
2022-08-16T09:57:52.879Z,6.60
2022-08-16T09:59:03.680Z,8.40
2022-08-16T09:59:49.574Z,7.40
2022-08-16T10:00:49.633Z,7.50
2022-08-16T10:01:48.541Z,8.20
2022-08-16T10:02:48.545Z,7.00
2022-08-16T10:04:02.596Z,6.40
2022-08-16T10:04:54.802Z,5.90
2022-08-16T10:05:49.545Z,7.00
2022-08-16T10:06:48.619Z,6.00
2022-08-16T10:07:48.579Z,7.30
2022-08-16T10:09:04.141Z,7.30
2022-08-16T10:09:55.443Z,5.80
2022-08-16T10:10:49.472Z,6.60
2022-08-16T10:11:49.887Z,7.70
2022-08-16T10:12:55.675Z,6.30
2022-08-16T10:13:49.466Z,6.40
2022-08-16T10:14:48.495Z,6.50
2022-08-16T10:15:55.463Z,6.50
2022-08-16T10:16:49.417Z,7.90
2022-08-16T10:18:00.170Z,7.00
2022-08-16T10:19:01.375Z,7.70
2022-08-16T10:19:50.319Z,8.50
2022-08-16T10:20:48.441Z,7.20
2022-08-16T10:21:48.379Z,5.80
2022-08-16T10:22:54.148Z,6.20
2022-08-16T10:23:49.372Z,6.70
2022-08-16T10:24:56.089Z,7.20
2022-08-16T10:27:16.137Z,5.90
2022-08-16T10:27:16.797Z,6.40
2022-08-16T10:27:53.266Z,7.40
2022-08-16T10:28:50.351Z,6.90
2022-08-16T10:30:00.434Z,6.60
2022-08-16T10:30:56.577Z,8.10
2022-08-16T10:31:53.817Z,6.70
2022-08-16T10:32:48.302Z,6.30
2022-08-16T10:33:48.312Z,7.50
2022-08-16T10:34:48.307Z,6.00
2022-08-16T10:35:48.383Z,7.00
2022-08-16T10:36:48.272Z,7.30
2022-08-16T10:37:49.463Z,6.20
2022-08-16T10:38:48.245Z,6.10
2022-08-16T10:39:48.245Z,6.10
2022-08-16T10:40:48.295Z,5.90
2022-08-16T10:41:48.259Z,6.30
2022-08-16T10:42:48.347Z,7.10
2022-08-16T10:43:48.224Z,8.80
2022-08-16T10:44:54.782Z,6.40
2022-08-16T10:46:00.389Z,6.20
2022-08-16T10:46:49.208Z,7.10
2022-08-16T10:47:48.313Z,6.00
2022-08-16T10:48:49.181Z,5.50
2022-08-16T10:49:48.158Z,5.90
2022-08-16T10:50:48.173Z,6.70
2022-08-16T10:52:02.640Z,6.60
2022-08-16T10:52:49.918Z,6.40
2022-08-16T10:53:48.132Z,5.80
2022-08-16T10:55:57.329Z,5.80
2022-08-16T10:56:55.639Z,7.50
2022-08-16T10:57:49.265Z,7.40
2022-08-16T10:58:48.128Z,5.30
2022-08-16T10:59:53.051Z,6.30
2022-08-16T11:00:50.568Z,6.70
2022-08-16T11:03:00.268Z,6.70
2022-08-16T11:03:54.598Z,6.30
2022-08-16T11:05:06.028Z,6.10
2022-08-16T11:06:06.370Z,7.40
2022-08-16T11:07:06.530Z,6.50
2022-08-16T11:07:54.983Z,6.20
2022-08-16T11:09:20.295Z,6.40
2022-08-16T11:09:49.008Z,6.40
2022-08-16T11:11:06.409Z,6.70
2022-08-16T11:12:52.881Z,6.30
2022-08-16T11:14:11.509Z,7.60
2022-08-16T11:15:55.709Z,5.70
2022-08-16T11:17:10.630Z,5.60
2022-08-16T11:18:48.472Z,6.20
2022-08-16T11:19:06.219Z,7.50
2022-08-16T11:20:50.492Z,6.90
2022-08-16T11:22:49.180Z,5.70
2022-08-16T11:23:57.538Z,6.70
2022-08-16T11:25:11.897Z,6.60
2022-08-16T11:26:20.591Z,6.10
2022-08-16T11:27:18.607Z,6.00
2022-08-16T11:27:49.026Z,5.80
2022-08-16T11:29:48.870Z,6.20
2022-08-16T11:30:51.780Z,5.50
2022-08-16T11:31:54.227Z,6.10
2022-08-16T11:32:48.996Z,6.00
2022-08-16T11:33:55.467Z,7.10
2022-08-16T11:35:13.255Z,5.40
2022-08-16T11:36:53.755Z,5.60
2022-08-16T11:38:51.748Z,6.00
2022-08-16T11:39:48.837Z,5.50
2022-08-16T11:40:52.240Z,7.00
2022-08-16T11:41:49.360Z,6.60
2022-08-16T11:42:48.743Z,5.80
2022-08-16T11:43:47.729Z,7.50
2022-08-16T11:44:56.411Z,7.10
2022-08-16T11:45:53.954Z,5.30
2022-08-16T11:46:48.736Z,6.10
2022-08-16T11:47:47.969Z,6.30
2022-08-16T11:48:47.707Z,5.50
2022-08-16T11:49:47.698Z,5.10
2022-08-16T11:50:47.708Z,5.40
2022-08-16T11:51:47.735Z,5.30
2022-08-16T11:52:47.679Z,5.00
2022-08-16T11:53:47.676Z,6.20
2022-08-16T11:54:47.692Z,5.40
2022-08-16T11:55:50.564Z,7.50
2022-08-16T11:56:52.532Z,6.80
2022-08-16T11:57:48.835Z,5.70
2022-08-16T11:58:51.579Z,6.70
2022-08-16T11:59:47.603Z,5.80
2022-08-16T12:00:51.052Z,6.60
2022-08-16T12:01:59.551Z,6.10
2022-08-16T12:02:48.629Z,5.80
2022-08-16T12:03:47.616Z,5.70
2022-08-16T12:04:51.614Z,5.90
2022-08-16T12:05:52.083Z,5.60
2022-08-16T12:06:48.576Z,6.40
2022-08-16T12:07:47.614Z,6.90
2022-08-16T12:08:47.576Z,6.30
2022-08-16T12:09:47.538Z,7.20
2022-08-16T12:10:47.537Z,6.10
2022-08-16T12:11:47.552Z,5.50
2022-08-16T12:12:48.541Z,7.30
2022-08-16T12:13:47.533Z,6.00
2022-08-16T12:14:47.488Z,6.00
2022-08-16T12:15:47.619Z,5.40
2022-08-16T12:16:55.158Z,6.00
2022-08-16T12:17:48.547Z,6.10
2022-08-16T12:19:47.456Z,6.20
2022-08-16T12:20:47.440Z,6.60
2022-08-16T12:21:59.320Z,7.90
2022-08-16T12:22:48.606Z,5.50
2022-08-16T12:23:47.437Z,5.90
2022-08-16T12:24:47.935Z,6.30
2022-08-16T12:25:47.412Z,5.30
2022-08-16T12:26:47.396Z,5.90
2022-08-16T12:27:47.423Z,5.20
2022-08-16T12:28:54.702Z,6.00
2022-08-16T12:29:48.420Z,6.30
2022-08-16T12:30:47.363Z,5.80
2022-08-16T12:32:01.555Z,5.80
2022-08-16T12:32:53.006Z,6.60
2022-08-16T12:33:48.359Z,7.20
2022-08-16T12:34:52.860Z,7.20
2022-08-16T12:35:47.346Z,5.50
2022-08-16T12:36:47.331Z,6.20
2022-08-16T12:37:47.406Z,5.70
2022-08-16T12:38:48.564Z,7.80
2022-08-16T12:39:50.597Z,5.60
2022-08-16T12:40:47.306Z,6.30
2022-08-16T12:41:47.348Z,5.80
2022-08-16T12:42:52.673Z,6.90
2022-08-16T12:43:48.274Z,5.50
2022-08-16T12:44:47.281Z,5.80
2022-08-16T12:45:47.322Z,5.60
2022-08-16T12:46:47.254Z,6.70
2022-08-16T12:47:47.268Z,7.70
2022-08-16T12:48:47.214Z,5.30
2022-08-16T12:49:47.212Z,5.10
2022-08-16T12:50:50.052Z,5.30
2022-08-16T12:51:59.951Z,5.10
2022-08-16T12:52:53.289Z,6.20
2022-08-16T12:53:48.182Z,6.70
2022-08-16T12:54:54.863Z,5.50
2022-08-16T12:55:48.194Z,5.80
2022-08-16T12:56:47.188Z,6.40
2022-08-16T12:57:47.143Z,6.30
2022-08-16T12:58:50.209Z,5.50
2022-08-16T12:59:47.135Z,5.90
2022-08-16T13:00:47.155Z,5.80
2022-08-16T13:01:47.139Z,6.00
2022-08-16T13:02:48.033Z,6.00
2022-08-16T13:03:47.103Z,7.60
2022-08-16T13:04:47.123Z,5.70
2022-08-16T13:05:53.313Z,5.00
2022-08-16T13:06:48.135Z,5.30
2022-08-16T13:07:51.533Z,6.00
2022-08-16T13:08:47.102Z,6.70
2022-08-16T13:09:47.085Z,6.00
2022-08-16T13:10:47.159Z,5.80
2022-08-16T13:11:55.166Z,5.30
2022-08-16T13:12:48.079Z,5.40